Aspen, Colorado
Current Conditions -  °F | °C
As of 6:53 AM on Monday 20 Oct 2014 (Local Time) from KLXV Reporting Station
Clear Clear  
Wind Chill: 21°   Ceiling: Unl
Heat Index: 26°   Visibility: 10mi
Dew Point: 25°   Wind: 5mph
Humidity: 96%   Direction: 50°NE
Pressure: 30.38"   Gusts: NA
Location:  39.19°N, 106.81°W
Report Text: KLXV 201253Z AUTO 05004KT 10SM CLR M03/M04 A3038 RMK AO2 SLP205 T10331039
Loading
Personal Weather Stations






























Interactive Weather Map
Tropical Storm Tracking
New forecast layout! Learn more

10-Day Weather Forecast

Advertisements
Track Severe Weather on mobile